Time;durP1;ratioP1;P1;durP2;ratioP2;P2;SDS_P1;SDS_P2;PMS_P1;PMS_P2;Temp;Humidity;BMP_temperature;BMP_pressure;BME280_temperature;BME280_humidity;BME280_pressure;Samples;Min_cycle;Max_cycle;Signal;HPM_P1;HPM_P2
2023/07/08 00:00:27;;;;;;;9.23;5.80;;;;;;;25.82;52.50;99534.50;5111317;28;20027;-37
2023/07/08 00:02:53;;;;;;;7.95;5.82;;;;;;;25.86;52.24;99532.75;5111197;28;20024;-36
2023/07/08 00:05:21;;;;;;;7.13;5.95;;;;;;;26.07;51.54;99530.34;5111095;28;20027;-35
2023/07/08 00:07:47;;;;;;;6.63;5.45;;;;;;;26.48;50.47;99528.47;5108475;28;20099;-34
2023/07/08 00:10:23;;;;;;;7.13;5.55;;;;;;;26.02;51.47;99522.31;5090620;28;20031;-35
2023/07/08 00:12:53;;;;;;;6.55;5.28;;;;;;;25.87;51.88;99533.56;5090952;28;20034;-36
2023/07/08 00:15:20;;;;;;;;;;;;;;;26.13;51.09;99529.09;5090990;28;20054;-36
2023/07/08 00:17:46;;;;;;;7.95;5.53;;;;;;;26.07;51.14;99529.56;5090727;28;19916;-36
2023/07/08 00:20:23;;;;;;;10.77;5.63;;;;;;;26.06;50.97;99538.84;5090702;28;20405;-36
2023/07/08 00:22:49;;;;;;;7.38;5.78;;;;;;;25.89;51.05;99531.31;5090908;28;20123;-37
2023/07/08 00:25:16;;;;;;;8.10;5.60;;;;;;;26.12;50.43;99535.69;5090775;28;20012;-36
2023/07/08 00:27:42;;;;;;;7.28;5.63;;;;;;;26.13;50.20;99529.09;5090231;28;20036;-36
2023/07/08 00:30:23;;;;;;;7.78;5.85;;;;;;;26.20;50.06;99527.84;5090628;28;20028;-36
2023/07/08 00:32:53;;;;;;;7.00;5.28;;;;;;;26.07;50.46;99524.09;5090111;28;20356;-36
2023/07/08 00:35:23;;;;;;;8.05;5.75;;;;;;;26.21;49.98;99527.53;5090646;28;20048;-36
2023/07/08 00:37:52;;;;;;;7.85;5.78;;;;;;;26.20;50.23;99527.84;5090381;28;20124;-36
2023/07/08 00:40:22;;;;;;;7.95;5.72;;;;;;;26.04;50.77;99536.41;5089937;28;20113;-36
2023/07/08 00:42:48;;;;;;;7.22;5.60;;;;;;;25.89;51.00;99529.44;5090560;28;20483;-36
2023/07/08 00:45:52;;;;;;;7.70;5.60;;;;;;;26.11;50.73;99536.00;5090050;28;20066;-36
2023/07/08 00:48:28;;;;;;;8.90;6.05;;;;;;;26.12;50.64;99532.97;5053291;28;20028;-36
2023/07/08 00:50:54;;;;;;;8.13;5.97;;;;;;;26.29;50.10;99539.59;5105006;28;20035;-37
2023/07/08 00:53:30;;;;;;;7.18;5.78;;;;;;;26.04;50.54;99544.59;5110223;28;20049;-36
2023/07/08 00:56:02;;;;;;;7.80;5.72;;;;;;;25.60;51.81;99551.63;5110055;28;20629;-37
2023/07/08 00:58:39;;;;;;;6.85;5.50;;;;;;;25.95;51.14;99557.41;5110101;28;20042;-37
2023/07/08 01:01:06;;;;;;;7.50;5.07;;;;;;;25.77;51.32;99542.78;5110078;28;20097;-36
2023/07/08 01:03:51;;;;;;;7.75;5.47;;;;;;;25.80;51.25;99546.81;5109993;28;20035;-36
2023/07/08 01:06:19;;;;;;;7.10;5.32;;;;;;;25.43;52.50;99540.59;5108538;28;20022;-37
2023/07/08 01:08:45;;;;;;;7.45;5.20;;;;;;;25.62;51.90;99548.59;5098859;28;20028;-36
2023/07/08 01:11:11;;;;;;;6.30;5.32;;;;;;;25.75;51.56;99559.44;5089504;28;20379;-37
2023/07/08 01:13:42;;;;;;;8.70;5.35;;;;;;;25.27;52.56;99561.94;5089123;28;20028;-36
2023/07/08 01:16:08;;;;;;;6.22;4.97;;;;;;;25.42;52.54;99567.03;5089227;28;20059;-37
2023/07/08 01:18:35;;;;;;;7.57;4.80;;;;;;;25.13;52.85;99556.47;5089678;28;20024;-37
2023/07/08 01:21:06;;;;;;;6.13;4.90;;;;;;;25.14;53.06;99558.88;5089953;28;20024;-36
2023/07/08 01:23:32;;;;;;;6.15;4.90;;;;;;;25.03;53.44;99564.84;5089849;28;20137;-36
2023/07/08 01:26:00;;;;;;;12.35;5.25;;;;;;;25.36;52.46;99557.38;5089336;28;20103;-36
2023/07/08 01:28:28;;;;;;;8.10;5.20;;;;;;;25.44;52.32;99562.09;5089675;28;20031;-37
2023/07/08 01:30:54;;;;;;;6.80;5.63;;;;;;;25.13;53.13;99568.19;5089645;28;20039;-37
2023/07/08 01:33:24;;;;;;;6.68;4.97;;;;;;;25.04;53.28;99570.00;5089741;28;20020;-37
2023/07/08 01:35:51;;;;;;;6.65;5.30;;;;;;;25.20;52.86;99565.03;5089582;28;20027;-36
2023/07/08 01:38:26;;;;;;;8.60;5.68;;;;;;;25.11;53.10;99558.69;5089714;28;20156;-36
2023/07/08 01:40:57;;;;;;;7.63;5.93;;;;;;;25.16;52.97;99561.31;5089936;28;20146;-36
2023/07/08 01:43:22;;;;;;;7.53;5.57;;;;;;;25.01;53.10;99562.44;5089506;28;20028;-35
2023/07/08 01:45:51;;;;;;;6.70;5.43;;;;;;;25.09;53.20;99561.72;5089098;28;20020;-35
2023/07/08 01:48:20;;;;;;;7.73;5.53;;;;;;;24.99;53.30;99572.81;5089534;28;20026;-35
2023/07/08 01:50:56;;;;;;;8.32;6.07;;;;;;;25.38;52.31;99570.66;5089311;28;20377;-36
2023/07/08 01:53:40;;;;;;;6.43;5.40;;;;;;;25.25;52.64;99572.31;5093121;28;20024;-36
2023/07/08 01:56:06;;;;;;;7.35;5.65;;;;;;;25.26;52.36;99572.00;5093196;28;20048;-36
2023/07/08 01:58:32;;;;;;;7.30;5.68;;;;;;;25.23;52.45;99564.47;5092998;28;20114;-36
2023/07/08 02:00:58;;;;;;;8.05;5.75;;;;;;;25.18;52.50;99576.22;5093173;28;20027;-35
2023/07/08 02:03:25;;;;;;;6.65;5.57;;;;;;;25.26;52.29;99566.56;5093062;28;20043;-36
2023/07/08 02:05:50;;;;;;;7.15;5.50;;;;;;;25.24;52.24;99579.66;5093058;28;20035;-36
2023/07/08 02:08:16;;;;;;;9.55;6.05;;;;;;;25.09;52.34;99563.63;5092867;28;20020;-36
2023/07/08 02:10:42;;;;;;;10.68;5.78;;;;;;;25.18;52.29;99584.38;5092830;28;20020;-35
2023/07/08 02:13:08;;;;;;;8.32;5.68;;;;;;;25.35;51.86;99588.44;5092664;28;20194;-36
2023/07/08 02:15:34;;;;;;;8.50;6.05;;;;;;;25.37;51.87;99583.47;5092576;28;20131;-36
2023/07/08 02:17:59;;;;;;;9.70;5.70;;;;;;;25.06;52.51;99589.56;5092916;28;20394;-36
2023/07/08 02:20:25;;;;;;;7.30;5.75;;;;;;;25.07;52.54;99576.75;5092662;28;20052;-35
2023/07/08 02:22:50;;;;;;;10.02;6.07;;;;;;;24.79;53.10;99590.38;5092859;28;20027;-36
2023/07/08 02:25:16;;;;;;;7.53;5.90;;;;;;;24.94;52.40;99589.25;5092417;28;20176;-36
2023/07/08 02:27:42;;;;;;;7.22;6.18;;;;;;;24.93;52.59;99585.72;5092724;28;20036;-36
2023/07/08 02:30:09;;;;;;;7.72;6.50;;;;;;;24.96;52.53;99590.56;5092995;28;20034;-37
2023/07/08 02:32:35;;;;;;;8.80;6.13;;;;;;;24.98;52.52;99591.06;5092606;28;20128;-36
2023/07/08 02:35:02;;;;;;;9.20;6.65;;;;;;;25.04;52.41;99604.59;5092584;28;20027;-36
2023/07/08 02:37:29;;;;;;;11.38;7.10;;;;;;;25.04;52.17;99605.38;5092149;28;20433;-36
2023/07/08 02:39:55;;;;;;;8.60;7.15;;;;;;;24.97;52.68;99611.22;5092128;28;20394;-36
2023/07/08 02:42:20;;;;;;;11.27;7.13;;;;;;;24.67;53.19;99604.44;5092015;28;20024;-36
2023/07/08 02:44:45;;;;;;;10.38;7.38;;;;;;;24.77;53.19;99608.91;5091982;28;20027;-36
2023/07/08 02:47:11;;;;;;;11.85;7.40;;;;;;;24.97;52.55;99597.59;5091985;28;20021;-36
2023/07/08 02:49:37;;;;;;;8.52;6.80;;;;;;;24.76;53.12;99613.53;5091457;28;20111;-36
2023/07/08 02:52:02;;;;;;;9.38;7.68;;;;;;;24.91;52.49;99617.06;5092012;28;20069;-36
2023/07/08 02:54:28;;;;;;;9.07;6.95;;;;;;;24.94;52.49;99613.72;5092610;28;20720;-37
2023/07/08 02:56:53;;;;;;;9.57;7.85;;;;;;;24.95;52.33;99618.09;5092537;28;20024;-36
2023/07/08 02:59:19;;;;;;;9.35;7.38;;;;;;;25.06;52.21;99611.31;5092705;28;20384;-37
2023/07/08 03:01:46;;;;;;;9.45;7.88;;;;;;;24.90;52.60;99619.00;5092463;28;20382;-37
2023/07/08 03:04:12;;;;;;;12.57;7.97;;;;;;;24.82;52.49;99627.03;5092626;28;20035;-36
2023/07/08 03:06:40;;;;;;;12.35;8.60;;;;;;;25.03;51.90;99622.00;5092016;28;20254;-36
2023/07/08 03:09:06;;;;;;;10.63;8.30;;;;;;;24.75;52.46;99627.44;5092085;28;20031;-37
2023/07/08 03:11:31;;;;;;;12.48;8.52;;;;;;;24.64;53.03;99634.19;5092128;28;20336;-35
2023/07/08 03:13:56;;;;;;;11.57;8.30;;;;;;;24.51;52.98;99642.00;5092450;28;20048;-36
2023/07/08 03:16:22;;;;;;;11.13;8.63;;;;;;;24.72;52.57;99645.16;5091945;28;20115;-36
2023/07/08 03:18:48;;;;;;;10.68;8.85;;;;;;;25.02;51.94;99639.44;5092358;28;20150;-36
2023/07/08 03:21:16;;;;;;;12.35;8.48;;;;;;;24.61;52.79;99642.94;5090610;28;20031;-36
2023/07/08 03:23:42;;;;;;;10.18;8.40;;;;;;;24.81;52.21;99642.56;5092119;28;20039;-36
2023/07/08 03:26:12;;;;;;;11.02;8.57;;;;;;;24.75;52.48;99641.03;5092280;28;20028;-36
2023/07/08 03:28:37;;;;;;;12.55;9.30;;;;;;;24.74;52.41;99651.13;5092039;28;20036;-36
2023/07/08 03:31:03;;;;;;;11.68;8.68;;;;;;;24.69;52.51;99651.19;5092036;28;20027;-36
2023/07/08 03:33:28;;;;;;;10.32;8.30;;;;;;;24.81;52.13;99647.19;5091764;28;20024;-36
2023/07/08 03:35:55;;;;;;;11.20;8.68;;;;;;;24.92;51.71;99663.03;5091328;28;20441;-36
2023/07/08 03:38:20;;;;;;;12.23;8.90;;;;;;;25.16;51.39;99662.03;5091742;28;20032;-36
2023/07/08 03:40:46;;;;;;;12.68;9.20;;;;;;;24.96;51.74;99664.06;5092006;28;20163;-36
2023/07/08 03:43:11;;;;;;;13.15;9.43;;;;;;;25.11;51.58;99670.28;5092221;28;20452;-36
2023/07/08 03:45:37;;;;;;;15.80;9.95;;;;;;;24.93;51.79;99675.53;5091744;28;20108;-36
2023/07/08 03:48:02;;;;;;;12.15;8.60;;;;;;;24.77;52.34;99687.81;5091645;28;20463;-36
2023/07/08 03:50:28;;;;;;;13.40;9.40;;;;;;;24.91;52.26;99676.94;5091544;28;20034;-36
2023/07/08 03:52:55;;;;;;;12.27;8.90;;;;;;;25.07;51.72;99680.97;5091520;28;20028;-36
2023/07/08 03:55:21;;;;;;;14.88;9.57;;;;;;;24.82;52.67;99676.81;5091696;28;20030;-36
2023/07/08 03:57:47;;;;;;;13.50;9.05;;;;;;;24.96;52.10;99682.31;5091638;28;20044;-35
2023/07/08 04:00:13;;;;;;;14.60;9.43;;;;;;;24.93;52.11;99680.16;5091586;28;20055;-35
2023/07/08 04:02:39;;;;;;;12.43;9.88;;;;;;;24.69;52.62;99696.66;5091444;28;20047;-37
2023/07/08 04:05:05;;;;;;;12.85;9.57;;;;;;;24.72;52.66;99696.84;5091752;28;20031;-37
2023/07/08 04:07:32;;;;;;;10.93;9.25;;;;;;;24.92;52.21;99698.44;5091247;28;20028;-37
2023/07/08 04:09:57;;;;;;;11.88;9.80;;;;;;;25.03;51.87;99698.22;5091704;28;20031;-36
2023/07/08 04:12:22;;;;;;;11.73;9.73;;;;;;;24.81;52.51;99704.31;5091422;28;20032;-36
2023/07/08 04:14:48;;;;;;;13.48;9.32;;;;;;;24.89;52.38;99699.00;5090716;28;20082;-36
2023/07/08 04:17:14;;;;;;;11.50;9.35;;;;;;;25.13;51.68;99698.84;5091400;28;20081;-37
2023/07/08 04:19:39;;;;;;;11.57;9.70;;;;;;;25.07;51.88;99694.59;5091281;28;20024;-36
2023/07/08 04:22:06;;;;;;;11.10;9.40;;;;;;;25.05;51.95;99696.81;5091304;28;20460;-36
2023/07/08 04:24:32;;;;;;;10.68;9.35;;;;;;;25.28;51.40;99699.69;5091225;28;20028;-36
2023/07/08 04:26:58;;;;;;;13.10;9.25;;;;;;;25.43;51.41;99710.25;5090964;28;20024;-36
2023/07/08 04:29:24;;;;;;;11.93;8.90;;;;;;;25.53;51.24;99710.06;5091161;28;20028;-36
2023/07/08 04:31:49;;;;;;;11.40;9.23;;;;;;;25.78;50.29;99694.28;5091124;28;20076;-36
2023/07/08 04:34:16;;;;;;;12.80;9.40;;;;;;;25.98;50.08;99695.78;5091447;28;20077;-37
2023/07/08 04:36:42;;;;;;;14.43;8.98;;;;;;;26.46;48.76;99680.75;5091227;28;20435;-37
2023/07/08 04:39:09;;;;;;;11.23;8.70;;;;;;;26.86;47.90;99683.56;5090922;28;20113;-37
2023/07/08 04:41:40;;;;;;;11.80;8.70;;;;;;;27.61;46.38;99681.78;5091154;28;20106;-36
2023/07/08 04:44:10;;;;;;;10.45;8.98;;;;;;;27.81;45.34;99679.53;5090757;28;20036;-37
2023/07/08 04:46:50;;;;;;;11.18;8.88;;;;;;;28.07;44.84;99679.59;5090808;28;20476;-37
2023/07/08 04:49:17;;;;;;;11.57;8.60;;;;;;;27.43;45.94;99664.53;5091016;28;20043;-36
2023/07/08 04:51:42;;;;;;;11.70;8.85;;;;;;;27.24;46.24;99670.22;5090789;28;20036;-37
2023/07/08 04:54:08;;;;;;;10.50;8.25;;;;;;;27.55;45.91;99674.03;5090557;28;20492;-37
2023/07/08 04:56:42;;;;;;;9.38;8.38;;;;;;;27.49;45.65;99665.19;5091209;28;20031;-37
2023/07/08 04:59:14;;;;;;;9.50;8.00;;;;;;;27.25;45.95;99660.16;5090597;28;20435;-36
2023/07/08 05:01:40;;;;;;;10.02;8.23;;;;;;;27.39;46.18;99670.94;5090721;28;20114;-36
2023/07/08 05:04:06;;;;;;;9.38;8.10;;;;;;;28.20;44.35;99661.41;5089583;28;20438;-37
2023/07/08 05:06:33;;;;;;;9.80;8.57;;;;;;;28.59;43.25;99665.06;5089246;28;20514;-36
2023/07/08 05:09:00;;;;;;;12.25;8.38;;;;;;;29.03;42.30;99668.44;5089371;28;20031;-36
2023/07/08 05:11:26;;;;;;;11.70;7.97;;;;;;;29.44;41.49;99662.31;5089436;28;20028;-36
2023/07/08 05:13:51;;;;;;;13.35;8.65;;;;;;;29.04;42.25;99670.06;5089583;28;20030;-36
2023/07/08 05:16:17;;;;;;;10.48;8.40;;;;;;;28.86;42.21;99663.84;5089369;28;20044;-36
2023/07/08 05:18:44;;;;;;;9.40;8.15;;;;;;;28.44;43.15;99669.06;5089530;28;20443;-36
2023/07/08 05:21:10;;;;;;;8.75;7.75;;;;;;;29.20;41.45;99670.34;5089771;28;20027;-37
2023/07/08 05:23:35;;;;;;;9.88;8.00;;;;;;;29.91;40.50;99669.59;5089254;28;20026;-36
2023/07/08 05:26:02;;;;;;;8.43;7.47;;;;;;;30.35;39.27;99661.81;5089256;28;20424;-37
2023/07/08 05:28:28;;;;;;;8.98;7.85;;;;;;;30.45;39.19;99662.53;5094070;28;20032;-37
2023/07/08 05:30:57;;;;;;;10.15;7.72;;;;;;;29.42;40.62;99672.78;5093002;28;20020;-35
2023/07/08 05:33:26;;;;;;;;;;;;;;;29.43;40.94;99662.63;5094153;28;20186;-36
2023/07/08 05:35:52;;;;;;;9.93;7.55;;;;;;;29.53;40.28;99664.16;5093901;28;19908;-36
2023/07/08 05:38:18;;;;;;;9.00;7.85;;;;;;;29.95;40.24;99658.72;5094586;28;20088;-35
2023/07/08 05:40:49;;;;;;;9.57;7.63;;;;;;;30.06;39.84;99662.66;5093075;28;20031;-36
2023/07/08 05:43:14;;;;;;;10.35;7.72;;;;;;;29.50;40.33;99653.88;5073827;28;20059;-36
2023/07/08 05:45:40;;;;;;;9.05;7.28;;;;;;;29.93;40.14;99645.38;5072376;28;20080;-36
2023/07/08 05:48:05;;;;;;;8.48;7.57;;;;;;;30.00;39.58;99647.56;5073986;28;20761;-37
2023/07/08 05:50:31;;;;;;;9.48;7.72;;;;;;;30.16;39.42;99651.28;5073908;28;20507;-36
2023/07/08 05:52:56;;;;;;;10.00;7.80;;;;;;;29.46;40.30;99650.22;5073665;28;20083;-36
2023/07/08 05:55:21;;;;;;;9.00;7.10;;;;;;;29.70;39.61;99638.56;5074827;28;20157;-36
2023/07/08 05:57:47;;;;;;;11.95;7.47;;;;;;;30.74;37.97;99637.63;5090387;28;20056;-35
2023/07/08 06:00:13;;;;;;;9.77;7.43;;;;;;;30.75;37.75;99638.44;5092608;28;20024;-35
2023/07/08 06:02:38;;;;;;;10.43;7.72;;;;;;;30.84;37.74;99646.56;5090313;28;20055;-37
2023/07/08 06:05:04;;;;;;;9.57;7.40;;;;;;;30.93;36.83;99639.03;5088911;28;20035;-36
2023/07/08 06:07:29;;;;;;;8.45;6.57;;;;;;;30.55;37.37;99640.13;5088545;28;20040;-35
2023/07/08 06:09:57;;;;;;;10.15;7.05;;;;;;;31.10;36.68;99644.31;5091399;28;20143;-35
2023/07/08 06:12:23;;;;;;;9.23;6.70;;;;;;;30.53;37.66;99634.97;5091689;28;20042;-37
2023/07/08 06:14:49;;;;;;;7.97;6.70;;;;;;;30.67;37.28;99631.88;5097339;28;20043;-37
2023/07/08 06:17:16;;;;;;;8.13;6.70;;;;;;;30.50;38.10;99640.31;5112412;28;20027;-41
2023/07/08 06:19:41;;;;;;;7.07;6.05;;;;;;;30.17;38.06;99636.41;5112341;28;20110;-41
2023/07/08 06:22:07;;;;;;;7.28;6.13;;;;;;;30.55;37.94;99629.94;5092500;28;20466;-42
2023/07/08 06:24:32;;;;;;;7.88;6.40;;;;;;;30.94;36.82;99633.22;5092247;28;20031;-40
2023/07/08 06:26:58;;;;;;;7.90;6.45;;;;;;;31.16;36.31;99629.19;5092268;28;20116;-41
2023/07/08 06:29:24;;;;;;;7.32;6.15;;;;;;;31.61;35.77;99630.19;5103903;28;20027;-40
2023/07/08 06:31:49;;;;;;;7.35;5.60;;;;;;;31.75;35.37;99633.34;5091702;28;20560;-40
2023/07/08 06:34:15;;;;;;;6.68;5.85;;;;;;;31.58;35.59;99630.09;5091672;28;20028;-43
2023/07/08 06:36:40;;;;;;;8.13;5.80;;;;;;;31.53;35.95;99622.88;5091878;28;20016;-41
2023/07/08 06:39:08;;;;;;;6.68;5.90;;;;;;;32.56;34.67;99629.69;5091220;28;20050;-42
2023/07/08 06:41:34;;;;;;;8.52;5.72;;;;;;;32.97;33.95;99627.56;5091591;28;20055;-42
2023/07/08 06:43:59;;;;;;;6.32;5.70;;;;;;;33.12;33.25;99637.00;5091287;28;20112;-42
2023/07/08 06:46:25;;;;;;;6.63;5.55;;;;;;;32.76;34.04;99641.59;5098161;28;20035;-42
2023/07/08 06:48:50;;;;;;;5.40;4.90;;;;;;;32.52;34.25;99634.31;5098742;28;20153;-42
2023/07/08 06:51:16;;;;;;;8.25;5.05;;;;;;;32.40;34.17;99640.66;5091439;28;20077;-42
2023/07/08 06:53:41;;;;;;;4.68;4.18;;;;;;;32.92;33.14;99638.88;5091346;28;20031;-41
2023/07/08 06:56:08;;;;;;;5.78;4.38;;;;;;;33.54;31.98;99633.59;5091640;28;20028;-41
2023/07/08 06:58:33;;;;;;;6.40;4.10;;;;;;;32.78;32.79;99638.50;5091715;28;20032;-42
2023/07/08 07:00:59;;;;;;;6.40;4.03;;;;;;;32.32;33.65;99642.44;5091839;28;20024;-41
2023/07/08 07:03:24;;;;;;;4.72;4.13;;;;;;;32.20;33.44;99647.22;5091819;28;20409;-43
2023/07/08 07:05:50;;;;;;;5.22;3.83;;;;;;;32.79;33.39;99645.63;5091260;28;20097;-40
2023/07/08 07:08:15;;;;;;;4.63;4.00;;;;;;;33.32;31.89;99646.13;5100635;28;20036;-41
2023/07/08 07:10:40;;;;;;;4.55;3.50;;;;;;;32.59;32.41;99634.50;5091376;28;20103;-41
2023/07/08 07:13:06;;;;;;;4.47;3.85;;;;;;;32.85;32.71;99652.47;5091707;28;20071;-42
2023/07/08 07:15:32;;;;;;;4.57;3.40;;;;;;;32.49;32.74;99649.56;5091482;28;20048;-42
2023/07/08 07:17:57;;;;;;;9.70;3.90;;;;;;;32.36;32.98;99648.03;5091594;28;20062;-41
2023/07/08 07:20:23;;;;;;;6.45;3.60;;;;;;;31.76;34.58;99650.66;5091563;28;20036;-42
2023/07/08 07:22:49;;;;;;;5.63;3.80;;;;;;;32.62;33.45;99631.03;5090418;28;20024;-41
2023/07/08 07:25:15;;;;;;;4.70;3.80;;;;;;;32.29;33.45;99647.84;5096552;28;20024;-43
2023/07/08 07:27:40;;;;;;;5.90;3.80;;;;;;;32.14;33.41;99666.72;5101361;28;20455;-45
2023/07/08 07:30:06;;;;;;;5.82;4.10;;;;;;;31.90;33.87;99669.53;5095107;28;20472;-41
2023/07/08 07:32:33;;;;;;;4.93;4.10;;;;;;;32.16;33.74;99666.38;5089555;28;20028;-42
2023/07/08 07:34:59;;;;;;;6.38;4.15;;;;;;;31.51;34.13;99674.66;5090497;28;20111;-42
2023/07/08 07:37:25;;;;;;;4.93;4.00;;;;;;;31.24;35.31;99676.94;5087857;28;20103;-42
2023/07/08 07:39:50;;;;;;;5.70;3.95;;;;;;;31.35;35.58;99682.78;5090901;28;20115;-42
2023/07/08 07:42:18;;;;;;;5.53;4.50;;;;;;;31.27;35.52;99684.50;5088938;28;20505;-41
2023/07/08 07:44:44;;;;;;;6.68;4.40;;;;;;;31.13;35.68;99673.03;5090630;28;20448;-42
2023/07/08 07:47:09;;;;;;;4.97;4.03;;;;;;;31.67;35.34;99667.28;5091062;28;20123;-41
2023/07/08 07:49:35;;;;;;;4.88;4.35;;;;;;;31.62;35.04;99670.28;5089517;28;20059;-41
2023/07/08 07:52:00;;;;;;;6.70;4.28;;;;;;;32.09;34.90;99663.41;5090355;28;20047;-42
2023/07/08 07:54:26;;;;;;;6.60;3.75;;;;;;;32.17;34.06;99678.19;5090130;28;20099;-43
2023/07/08 07:56:52;;;;;;;5.45;4.28;;;;;;;31.32;34.85;99684.28;5091890;28;20361;-42
2023/07/08 07:59:18;;;;;;;3.97;3.55;;;;;;;31.05;35.09;99677.50;5090383;28;20020;-42
2023/07/08 08:01:43;;;;;;;8.52;4.03;;;;;;;31.33;34.79;99683.13;5090351;28;20372;-41
2023/07/08 08:04:11;;;;;;;5.18;3.80;;;;;;;32.10;34.59;99673.25;5090070;28;20024;-40
2023/07/08 08:06:37;;;;;;;7.40;4.05;;;;;;;32.67;32.92;99680.38;5089946;28;20046;-41
2023/07/08 08:09:07;;;;;;;6.53;3.90;;;;;;;31.95;34.21;99685.81;5089555;28;20032;-43
2023/07/08 08:11:32;;;;;;;6.32;3.80;;;;;;;31.41;34.49;99689.63;5089947;28;20572;-40
2023/07/08 08:13:59;;;;;;;4.60;3.38;;;;;;;31.70;33.84;99685.88;5097438;28;20023;-41
2023/07/08 08:16:25;;;;;;;4.47;3.28;;;;;;;31.13;34.20;99682.09;5110529;28;20089;-41
2023/07/08 08:18:50;;;;;;;3.92;3.53;;;;;;;31.65;33.86;99688.84;5091887;28;20111;-42
2023/07/08 08:21:16;;;;;;;4.88;3.30;;;;;;;32.55;32.88;99691.41;5089783;28;20016;-42
2023/07/08 08:23:42;;;;;;;3.80;3.30;;;;;;;32.44;32.67;99673.78;5091551;28;20301;-42
2023/07/08 08:26:08;;;;;;;5.20;3.40;;;;;;;33.02;32.08;99690.69;5089270;28;20458;-42
2023/07/08 08:28:33;;;;;;;4.30;3.22;;;;;;;32.57;32.62;99680.88;5089392;28;20028;-40
2023/07/08 08:30:58;;;;;;;4.80;3.42;;;;;;;32.40;32.69;99678.41;5089996;28;20028;-40
2023/07/08 08:33:24;;;;;;;6.50;3.65;;;;;;;32.02;33.58;99679.72;5090036;28;20026;-41
2023/07/08 08:35:49;;;;;;;4.00;3.60;;;;;;;32.28;33.16;99680.06;5092656;28;20024;-42
2023/07/08 08:38:15;;;;;;;4.43;3.50;;;;;;;32.36;32.91;99683.03;5093772;28;20027;-43
2023/07/08 08:40:44;;;;;;;5.05;3.50;;;;;;;33.05;32.25;99683.66;5091628;28;20335;-42
2023/07/08 08:43:18;;;;;;;4.97;3.53;;;;;;;33.13;31.18;99685.47;5095057;28;20079;-42
2023/07/08 08:46:15;;;;;;;6.72;3.30;;;;;;;33.31;31.37;99688.63;5093162;28;20013;-40
2023/07/08 08:49:25;;;;;;;4.15;3.25;;;;;;;32.65;31.62;99688.19;5087847;28;20027;-43
2023/07/08 08:51:51;;;;;;;5.80;3.00;;;;;;;32.48;31.87;99686.53;5088986;28;20019;-46
2023/07/08 08:54:17;;;;;;;7.88;3.00;;;;;;;32.29;32.21;99697.38;5090302;28;20070;-42
2023/07/08 08:57:01;;;;;;;4.95;3.20;;;;;;;32.66;31.55;99692.53;5090458;28;20028;-42
2023/07/08 08:59:29;;;;;;;3.00;2.60;;;;;;;33.36;30.73;99682.84;5087607;28;20090;-42
2023/07/08 09:01:56;;;;;;;5.28;3.25;;;;;;;33.48;30.46;99701.25;5090377;28;20032;-42
2023/07/08 09:04:36;;;;;;;4.50;3.20;;;;;;;33.15;30.64;99704.38;5090560;28;20047;-41
2023/07/08 09:07:11;;;;;;;3.95;3.28;;;;;;;33.06;31.35;99705.34;5089795;28;20061;-42
2023/07/08 09:09:45;;;;;;;4.80;3.00;;;;;;;32.82;31.62;99706.31;5089764;28;20031;-42
2023/07/08 09:12:21;;;;;;;3.35;2.78;;;;;;;32.66;31.88;99705.50;5090166;28;20103;-40
2023/07/08 09:14:47;;;;;;;4.38;2.63;;;;;;;32.56;32.79;99695.78;5089556;28;20139;-41
2023/07/08 09:17:34;;;;;;;3.97;3.22;;;;;;;33.11;31.26;99687.78;5089326;28;20503;-41
2023/07/08 09:20:03;;;;;;;4.47;2.83;;;;;;;32.64;31.58;99691.28;5089928;28;20028;-41
2023/07/08 09:22:34;;;;;;;;;;;;;;;32.88;31.14;99693.88;5090660;28;20032;-42
2023/07/08 09:25:08;;;;;;;4.25;2.83;;;;;;;33.21;31.33;99680.91;5090079;28;19921;-42
2023/07/08 09:27:33;;;;;;;4.03;2.95;;;;;;;32.30;32.21;99686.03;5089863;28;20134;-41
2023/07/08 09:29:59;;;;;;;5.25;3.28;;;;;;;32.27;32.71;99680.41;5089565;28;20107;-41
2023/07/08 09:32:27;;;;;;;3.78;3.05;;;;;;;32.91;31.75;99684.09;5090144;28;20021;-43
2023/07/08 09:35:03;;;;;;;3.80;2.80;;;;;;;32.88;31.85;99676.53;5090099;28;20016;-42
2023/07/08 09:37:32;;;;;;;3.28;2.80;;;;;;;33.65;31.05;99666.97;5089794;28;20111;-44
2023/07/08 09:39:59;;;;;;;4.20;3.30;;;;;;;34.11;29.88;99664.38;5090111;28;20028;-42
2023/07/08 09:42:31;;;;;;;3.85;2.88;;;;;;;33.54;30.06;99665.91;5092379;28;20498;-41
2023/07/08 09:45:01;;;;;;;10.02;8.70;;;;;;;33.83;30.89;99659.88;5110154;28;20023;-41
2023/07/08 09:47:30;;;;;;;4.47;3.03;;;;;;;33.60;30.56;99651.47;5110453;28;20066;-41
2023/07/08 09:49:58;;;;;;;3.20;2.70;;;;;;;34.13;29.89;99645.47;5106384;28;20102;-42
2023/07/08 09:52:23;;;;;;;3.58;2.95;;;;;;;33.54;29.93;99643.84;5089658;28;20248;-42
2023/07/08 09:54:49;;;;;;;3.67;2.83;;;;;;;34.28;29.87;99632.78;5088082;28;20028;-43
2023/07/08 09:57:29;;;;;;;3.40;3.05;;;;;;;33.98;29.36;99643.59;5088355;28;20603;-43
2023/07/08 10:00:02;;;;;;;3.88;2.80;;;;;;;34.17;29.56;99634.53;5088631;28;20016;-41
2023/07/08 10:02:39;;;;;;;5.05;3.03;;;;;;;33.86;29.50;99637.06;5089288;28;20348;-41
2023/07/08 10:05:12;;;;;;;3.72;2.67;;;;;;;33.29;30.31;99639.34;5087845;28;20031;-42
2023/07/08 10:07:37;;;;;;;3.50;3.20;;;;;;;33.49;30.52;99633.88;5085131;28;20028;-40
2023/07/08 10:10:07;;;;;;;4.45;3.00;;;;;;;33.84;29.60;99625.59;5092548;28;20099;-38
2023/07/08 10:12:36;;;;;;;4.25;3.10;;;;;;;34.01;29.40;99629.88;5097029;28;20027;-37
2023/07/08 10:15:19;;;;;;;7.57;3.03;;;;;;;33.72;30.00;99624.94;5090711;28;20079;-36
2023/07/08 10:17:45;;;;;;;3.58;2.95;;;;;;;33.26;30.69;99636.53;5101452;28;20467;-37
2023/07/08 10:20:12;;;;;;;3.15;2.70;;;;;;;33.06;30.61;99633.69;5103260;28;20080;-37
2023/07/08 10:22:46;;;;;;;3.78;2.90;;;;;;;33.18;30.62;99632.81;5105296;28;20045;-37
2023/07/08 10:25:30;;;;;;;3.40;2.80;;;;;;;33.36;30.26;99624.94;5103002;28;20016;-35
2023/07/08 10:28:17;;;;;;;3.88;2.90;;;;;;;33.80;29.37;99613.69;5092023;28;20543;-37
2023/07/08 10:30:58;;;;;;;3.47;3.00;;;;;;;34.39;29.75;99613.66;5092840;28;20020;-36
2023/07/08 10:33:52;;;;;;;3.38;2.90;;;;;;;33.83;30.21;99607.47;5091440;28;20093;-36
2023/07/08 10:36:24;;;;;;;6.53;2.97;;;;;;;33.88;30.10;99607.13;5093126;28;20081;-36
2023/07/08 10:39:32;;;;;;;5.18;3.00;;;;;;;34.28;28.56;99603.19;5093087;28;20019;-36
2023/07/08 10:42:12;;;;;;;3.80;2.70;;;;;;;33.72;29.48;99598.16;5087226;28;20225;-36
2023/07/08 10:44:55;;;;;;;;;;;;;;;33.87;28.94;99596.47;5073080;28;20158;-37
2023/07/08 10:48:05;;;;;;;4.28;3.10;;;;;;;35.05;28.00;99586.69;5072513;28;19913;-36
2023/07/08 10:50:41;;;;;;;3.20;2.78;;;;;;;35.65;27.62;99583.19;5072377;28;20032;-37
2023/07/08 10:53:30;;;;;;;4.05;2.80;;;;;;;34.83;27.62;99591.91;5072654;28;20407;-37
2023/07/08 10:56:11;;;;;;;4.18;2.60;;;;;;;35.02;28.00;99574.44;5072431;28;20017;-37
2023/07/08 10:59:12;;;;;;;4.65;2.90;;;;;;;33.69;29.54;99582.31;5072580;28;20032;-37
2023/07/08 11:01:37;;;;;;;;;;;;;;;34.35;28.90;99582.38;5072560;28;20094;-36
2023/07/08 11:04:03;;;;;;;4.72;2.83;;;;;;;34.73;27.76;99580.69;5072458;28;20343;-37
2023/07/08 11:07:04;;;;;;;3.30;2.60;;;;;;;35.40;27.17;99572.59;5072126;28;20070;-38
2023/07/08 11:09:45;;;;;;;3.78;2.60;;;;;;;35.21;26.81;99583.81;5071600;28;20517;-37
2023/07/08 11:12:19;;;;;;;3.38;2.60;;;;;;;34.84;27.47;99568.66;5072171;28;20030;-37
2023/07/08 11:15:03;;;;;;;3.35;2.80;;;;;;;34.73;27.83;99573.22;5072144;28;20024;-36
2023/07/08 11:17:33;;;;;;;3.15;2.72;;;;;;;34.70;27.47;99564.84;5072203;28;20136;-35
2023/07/08 11:20:10;;;;;;;2.92;2.53;;;;;;;34.82;27.22;99570.97;5072117;28;20028;-36
2023/07/08 11:22:45;;;;;;;5.03;2.95;;;;;;;34.61;28.30;99563.09;5071882;28;20649;-36
2023/07/08 11:25:18;;;;;;;6.00;2.90;;;;;;;34.35;28.11;99568.56;5071616;28;20025;-37
2023/07/08 11:27:47;;;;;;;3.25;2.80;;;;;;;34.13;28.17;99576.47;5071789;28;20032;-37
2023/07/08 11:30:14;;;;;;;;;;;;;;;34.21;28.26;99566.38;5078559;28;20067;-37
2023/07/08 11:32:43;;;;;;;3.17;2.58;;;;;;;34.69;28.83;99560.50;5091805;28;19938;-37
2023/07/08 11:35:23;;;;;;;3.60;2.95;;;;;;;33.61;29.25;99569.53;5091818;28;20020;-37
2023/07/08 11:37:50;;;;;;;4.50;2.90;;;;;;;33.74;29.12;99554.47;5091793;28;20031;-38
2023/07/08 11:40:22;;;;;;;4.25;3.05;;;;;;;33.17;29.79;99562.31;5091749;28;20031;-37
2023/07/08 11:42:51;;;;;;;3.85;3.00;;;;;;;34.21;28.65;99558.88;5091325;28;20046;-36